createdAt,value
2022-08-31T00:00:33.633Z,42.45
2022-08-31T00:03:26.234Z,42.44
2022-08-31T00:05:59.324Z,42.53
2022-08-31T00:08:27.891Z,42.65
2022-08-31T00:10:57.594Z,42.73
2022-08-31T00:13:27.153Z,42.71
2022-08-31T00:15:55.564Z,42.49
2022-08-31T00:18:23.866Z,42.72
2022-08-31T00:20:51.321Z,42.43
2022-08-31T00:23:18.954Z,42.70
2022-08-31T00:25:48.594Z,42.49
2022-08-31T00:28:17.935Z,42.53
2022-08-31T00:30:46.801Z,42.27
2022-08-31T00:33:15.142Z,42.30
2022-08-31T00:35:44.668Z,42.59
2022-08-31T00:38:12.584Z,42.52
2022-08-31T00:40:44.649Z,42.22
2022-08-31T00:43:37.628Z,42.35
2022-08-31T00:46:06.070Z,42.23
2022-08-31T00:48:41.445Z,42.21
2022-08-31T00:51:09.408Z,42.26
2022-08-31T00:53:39.465Z,42.34
2022-08-31T00:56:08.413Z,42.37
2022-08-31T00:58:36.448Z,42.38
2022-08-31T01:01:07.945Z,42.10
2022-08-31T01:03:35.632Z,42.22
2022-08-31T01:06:03.926Z,41.99
2022-08-31T01:08:31.614Z,42.21
2022-08-31T01:11:00.436Z,42.19
2022-08-31T01:13:30.459Z,42.00
2022-08-31T01:16:03.423Z,41.91
2022-08-31T01:18:33.571Z,41.72
2022-08-31T01:21:16.124Z,41.87
2022-08-31T01:23:45.408Z,41.66
2022-08-31T01:26:17.750Z,42.04
2022-08-31T01:28:45.797Z,41.70
2022-08-31T01:31:25.460Z,41.83
2022-08-31T01:33:53.972Z,41.59
2022-08-31T01:36:23.171Z,41.53
2022-08-31T01:38:53.342Z,41.49
2022-08-31T01:41:22.342Z,41.67
2022-08-31T01:43:50.249Z,41.76
2022-08-31T01:46:17.943Z,41.56
2022-08-31T01:48:47.835Z,41.47
2022-08-31T01:51:17.509Z,41.70
2022-08-31T01:53:48.488Z,41.70
2022-08-31T01:56:20.498Z,41.82
2022-08-31T01:58:48.137Z,41.56
2022-08-31T02:01:32.986Z,41.56
2022-08-31T02:04:04.950Z,41.59
2022-08-31T02:06:33.381Z,41.79
2022-08-31T02:09:01.468Z,41.52
2022-08-31T02:11:29.125Z,41.76
2022-08-31T02:13:56.674Z,41.81
2022-08-31T02:16:24.421Z,41.54
2022-08-31T02:18:52.397Z,41.96
2022-08-31T02:21:20.229Z,41.69
2022-08-31T02:23:47.782Z,41.71
2022-08-31T02:26:15.496Z,41.71
2022-08-31T02:28:43.157Z,41.67
2022-08-31T02:31:10.576Z,41.88
2022-08-31T02:33:38.370Z,41.49
2022-08-31T02:36:06.991Z,41.66
2022-08-31T02:38:36.441Z,41.51
2022-08-31T02:41:05.724Z,41.85
2022-08-31T02:43:33.561Z,41.66
2022-08-31T02:46:01.301Z,41.75
2022-08-31T02:48:29.868Z,41.85
2022-08-31T02:51:04.525Z,41.85
2022-08-31T02:53:32.852Z,41.84
2022-08-31T02:56:00.350Z,41.52
2022-08-31T02:58:29.074Z,41.84
2022-08-31T03:00:57.261Z,41.72
2022-08-31T03:03:25.277Z,42.03
2022-08-31T03:05:52.738Z,42.08
2022-08-31T03:08:20.357Z,42.05
2022-08-31T03:10:48.753Z,42.22
2022-08-31T03:13:16.194Z,42.14
2022-08-31T03:15:45.406Z,42.11
2022-08-31T03:18:12.978Z,42.32
2022-08-31T03:20:40.375Z,42.31
2022-08-31T03:23:08.645Z,42.35
2022-08-31T03:25:39.584Z,42.28
2022-08-31T03:28:08.769Z,42.14
2022-08-31T03:30:36.608Z,42.42
2022-08-31T03:33:04.174Z,42.54
2022-08-31T03:35:32.050Z,42.49
2022-08-31T03:38:02.639Z,42.49
2022-08-31T03:40:31.286Z,42.23
2022-08-31T03:42:58.901Z,42.41
2022-08-31T03:45:27.915Z,42.38
2022-08-31T03:47:55.429Z,42.75
2022-08-31T03:50:22.847Z,42.58
2022-08-31T03:52:54.165Z,42.76
2022-08-31T03:55:21.758Z,42.80
2022-08-31T03:57:49.156Z,42.60
2022-08-31T04:00:17.032Z,42.88
2022-08-31T04:02:45.325Z,42.59
2022-08-31T04:05:14.109Z,42.68
2022-08-31T04:07:43.175Z,42.54
2022-08-31T04:10:12.863Z,42.73
2022-08-31T04:12:41.403Z,42.75
2022-08-31T04:15:10.074Z,42.92
2022-08-31T04:17:37.834Z,42.72
2022-08-31T04:20:06.871Z,42.84
2022-08-31T04:22:34.956Z,42.97
2022-08-31T04:25:02.537Z,43.13
2022-08-31T04:27:30.013Z,42.98
2022-08-31T04:29:57.650Z,43.35
2022-08-31T04:32:25.113Z,43.26
2022-08-31T04:34:56.092Z,43.14
2022-08-31T04:37:24.284Z,43.35
2022-08-31T04:39:52.206Z,43.26
2022-08-31T04:42:20.046Z,43.20
2022-08-31T04:44:47.717Z,43.37
2022-08-31T04:47:15.441Z,43.34
2022-08-31T04:49:42.922Z,43.29
2022-08-31T04:52:10.675Z,43.17
2022-08-31T04:54:38.138Z,43.53
2022-08-31T04:57:06.012Z,43.47
2022-08-31T04:59:33.684Z,43.33
2022-08-31T05:02:01.217Z,43.65
2022-08-31T05:04:29.123Z,43.41
2022-08-31T05:06:56.965Z,43.66
2022-08-31T05:09:24.436Z,43.56
2022-08-31T05:11:55.017Z,43.81
2022-08-31T05:14:24.085Z,43.86
2022-08-31T05:16:52.452Z,43.65
2022-08-31T05:19:20.515Z,43.75
2022-08-31T05:21:48.565Z,43.80
2022-08-31T05:24:22.611Z,43.96
2022-08-31T05:26:53.072Z,44.31
2022-08-31T05:29:23.707Z,44.45
2022-08-31T05:31:52.779Z,44.26
2022-08-31T05:34:22.333Z,44.56
2022-08-31T05:36:52.833Z,44.62
2022-08-31T05:39:20.713Z,44.79
2022-08-31T05:41:48.897Z,44.75
2022-08-31T05:44:17.898Z,44.51
2022-08-31T05:46:54.851Z,44.55
2022-08-31T05:49:32.114Z,44.90
2022-08-31T05:52:01.895Z,44.84
2022-08-31T05:54:29.693Z,44.94
2022-08-31T05:57:00.978Z,44.96
2022-08-31T05:59:31.177Z,45.52
2022-08-31T06:01:59.288Z,45.72
2022-08-31T06:04:28.337Z,45.49
2022-08-31T06:06:56.213Z,45.50
2022-08-31T06:09:23.918Z,45.60
2022-08-31T06:11:54.095Z,45.69
2022-08-31T06:14:22.929Z,46.31
2022-08-31T06:16:51.282Z,46.37
2022-08-31T06:19:20.060Z,46.26
2022-08-31T06:21:50.950Z,46.19
2022-08-31T06:24:19.928Z,46.35
2022-08-31T06:26:58.758Z,46.31
2022-08-31T06:29:31.260Z,46.52
2022-08-31T06:32:00.477Z,46.29
2022-08-31T06:34:29.226Z,46.32
2022-08-31T06:36:57.076Z,46.37
2022-08-31T06:39:24.874Z,46.04
2022-08-31T06:41:54.044Z,46.36
2022-08-31T06:44:23.970Z,46.08
2022-08-31T06:46:51.790Z,46.09
2022-08-31T06:49:20.363Z,46.15
2022-08-31T06:51:48.065Z,46.17
2022-08-31T06:54:32.666Z,46.14
2022-08-31T06:57:02.743Z,46.24
2022-08-31T06:59:30.336Z,46.07
2022-08-31T07:02:00.237Z,46.34
2022-08-31T07:04:31.052Z,46.27
2022-08-31T07:06:58.514Z,46.14
2022-08-31T07:09:25.996Z,46.25
2022-08-31T07:11:54.091Z,46.22
2022-08-31T07:14:24.770Z,46.28
2022-08-31T07:16:54.293Z,46.58
2022-08-31T07:19:23.048Z,46.32
2022-08-31T07:21:59.652Z,46.42
2022-08-31T07:24:33.291Z,46.42
2022-08-31T07:27:09.914Z,46.35
2022-08-31T07:29:42.276Z,46.69
2022-08-31T07:32:12.357Z,46.41
2022-08-31T07:34:41.362Z,46.24
2022-08-31T07:37:27.189Z,46.09
2022-08-31T07:40:13.552Z,45.98
2022-08-31T07:42:46.654Z,45.80
2022-08-31T07:45:25.655Z,45.92
2022-08-31T07:47:56.166Z,45.93
2022-08-31T07:50:24.313Z,45.87
2022-08-31T07:52:54.761Z,45.98
2022-08-31T07:55:24.521Z,46.09
2022-08-31T07:57:54.998Z,45.85
2022-08-31T08:00:29.078Z,45.93
2022-08-31T08:03:07.604Z,45.79
2022-08-31T08:05:38.652Z,46.03
2022-08-31T08:08:11.894Z,45.88
2022-08-31T08:10:43.630Z,45.80
2022-08-31T08:13:16.950Z,45.80
2022-08-31T08:15:48.286Z,45.81
2022-08-31T08:18:16.505Z,45.71
2022-08-31T08:20:43.889Z,45.62
2022-08-31T08:23:14.610Z,45.76
2022-08-31T08:25:44.021Z,45.69
2022-08-31T08:31:06.955Z,45.66
2022-08-31T08:33:35.760Z,45.62
2022-08-31T08:36:10.012Z,45.69
2022-08-31T08:38:41.029Z,45.89
2022-08-31T08:41:14.181Z,45.89
2022-08-31T08:43:49.977Z,45.65
2022-08-31T08:46:36.610Z,46.05
2022-08-31T08:49:37.311Z,45.82
2022-08-31T08:52:11.770Z,45.69
2022-08-31T08:54:42.410Z,46.02
2022-08-31T08:57:14.154Z,45.87
2022-08-31T08:59:46.980Z,46.06
2022-08-31T09:02:22.073Z,45.73
2022-08-31T09:04:59.481Z,45.92
2022-08-31T09:07:36.276Z,46.03
2022-08-31T09:10:21.970Z,45.91
2022-08-31T09:13:26.722Z,45.98
2022-08-31T09:16:22.374Z,45.57
2022-08-31T09:18:59.397Z,45.62
2022-08-31T09:21:34.494Z,45.87
2022-08-31T09:24:08.429Z,45.74
2022-08-31T09:26:56.686Z,45.53
2022-08-31T09:29:29.615Z,45.45
2022-08-31T09:32:09.772Z,45.39
2022-08-31T09:34:41.163Z,45.21
2022-08-31T09:37:24.353Z,45.45
2022-08-31T09:39:53.540Z,45.21
2022-08-31T09:42:32.145Z,45.27
2022-08-31T09:45:11.676Z,45.40
2022-08-31T09:47:53.059Z,45.16
2022-08-31T09:50:44.918Z,45.37
2022-08-31T09:53:36.906Z,45.17
2022-08-31T09:56:15.372Z,45.09
2022-08-31T09:58:47.033Z,44.97
2022-08-31T10:01:27.130Z,44.95
2022-08-31T10:04:20.278Z,44.88
2022-08-31T10:07:01.799Z,44.85
2022-08-31T10:09:36.261Z,44.85
2022-08-31T10:12:09.725Z,44.95
2022-08-31T10:14:52.534Z,45.15
2022-08-31T10:17:40.602Z,44.61
2022-08-31T10:20:21.196Z,44.68
2022-08-31T10:22:52.042Z,44.72
2022-08-31T10:25:37.093Z,44.67
2022-08-31T10:28:18.669Z,44.78
2022-08-31T10:30:58.186Z,44.09
2022-08-31T10:33:54.964Z,43.99
2022-08-31T10:36:25.283Z,43.77
2022-08-31T10:38:55.091Z,43.76
2022-08-31T10:41:34.899Z,43.45
2022-08-31T10:44:18.171Z,43.37
2022-08-31T10:46:46.090Z,42.70
2022-08-31T10:49:14.137Z,42.56
2022-08-31T10:51:49.109Z,42.54
2022-08-31T10:55:15.065Z,43.04
2022-08-31T10:58:11.931Z,42.60
2022-08-31T11:00:58.268Z,42.89
2022-08-31T11:03:57.050Z,42.69
2022-08-31T11:06:41.564Z,42.44
2022-08-31T11:09:54.989Z,42.69
2022-08-31T11:12:33.330Z,42.86
2022-08-31T11:15:22.462Z,42.69
2022-08-31T11:18:12.047Z,42.44
2022-08-31T11:20:54.983Z,42.42
2022-08-31T11:23:55.794Z,42.43
2022-08-31T11:26:43.291Z,42.62
2022-08-31T11:29:41.441Z,42.94
2022-08-31T11:32:12.108Z,42.76
2022-08-31T11:34:53.459Z,42.59
2022-08-31T11:37:50.875Z,42.53
2022-08-31T11:40:41.638Z,42.55
2022-08-31T11:43:14.938Z,42.21
2022-08-31T11:45:43.237Z,42.05
2022-08-31T11:48:51.218Z,41.88
2022-08-31T11:51:43.259Z,41.51
2022-08-31T11:54:38.149Z,40.91
2022-08-31T11:57:06.476Z,41.33
2022-08-31T11:59:38.302Z,40.85
2022-08-31T12:02:21.549Z,40.61
2022-08-31T12:04:52.072Z,40.74
2022-08-31T12:07:28.590Z,40.89
2022-08-31T12:10:07.077Z,40.18
2022-08-31T12:13:18.669Z,40.38
2022-08-31T12:16:12.403Z,41.17
2022-08-31T12:19:03.150Z,40.65
2022-08-31T12:22:16.306Z,39.41
2022-08-31T12:24:57.609Z,40.03
2022-08-31T12:27:49.574Z,40.59
2022-08-31T12:30:19.920Z,40.69
2022-08-31T12:32:58.983Z,40.65
2022-08-31T12:35:30.569Z,39.51
2022-08-31T12:38:06.804Z,39.70
2022-08-31T12:40:41.408Z,39.86
2022-08-31T12:43:14.072Z,39.97
2022-08-31T12:46:09.398Z,39.72
2022-08-31T12:48:51.901Z,39.88
2022-08-31T12:51:39.900Z,40.15
2022-08-31T12:54:35.446Z,39.56
2022-08-31T12:57:32.078Z,39.78
2022-08-31T13:00:29.109Z,39.61
2022-08-31T13:03:18.375Z,39.43
2022-08-31T13:06:26.032Z,39.28
2022-08-31T13:08:55.022Z,39.32
2022-08-31T13:11:40.662Z,39.16
2022-08-31T13:14:14.002Z,38.96
2022-08-31T13:16:51.449Z,38.77
2022-08-31T13:19:29.498Z,38.75
2022-08-31T13:21:58.281Z,38.66
2022-08-31T13:24:31.461Z,37.68
2022-08-31T13:27:23.304Z,38.12
2022-08-31T13:29:53.399Z,38.33
2022-08-31T13:32:33.990Z,38.58
2022-08-31T13:35:08.402Z,38.98
2022-08-31T13:37:52.459Z,39.30
2022-08-31T13:40:24.765Z,39.09
2022-08-31T13:42:57.013Z,38.91
2022-08-31T13:45:30.224Z,38.79
2022-08-31T13:48:11.292Z,38.81
2022-08-31T13:50:54.041Z,38.73
2022-08-31T13:53:45.930Z,38.25
2022-08-31T13:56:47.748Z,38.78
2022-08-31T13:59:24.032Z,38.36
2022-08-31T14:01:53.376Z,38.65
2022-08-31T14:04:48.234Z,38.94
2022-08-31T14:07:22.044Z,38.82
2022-08-31T14:09:57.500Z,39.00
2022-08-31T14:12:35.556Z,39.46
2022-08-31T14:15:24.303Z,38.93
2022-08-31T14:21:23.808Z,37.89
2022-08-31T14:24:00.443Z,37.92
2022-08-31T14:26:34.290Z,38.23
2022-08-31T14:29:14.669Z,38.46
2022-08-31T14:31:52.217Z,38.66
2022-08-31T14:34:26.795Z,38.62
2022-08-31T14:37:07.009Z,38.58
2022-08-31T14:39:45.993Z,38.63
2022-08-31T14:42:17.278Z,38.54
2022-08-31T14:45:07.787Z,37.56
2022-08-31T14:47:43.911Z,37.86
2022-08-31T14:50:16.250Z,37.41
2022-08-31T14:52:52.915Z,37.30
2022-08-31T14:55:25.649Z,37.46
2022-08-31T14:58:01.607Z,37.33
2022-08-31T15:00:31.742Z,37.37
2022-08-31T15:03:02.469Z,37.51
2022-08-31T15:05:32.325Z,37.67
2022-08-31T15:08:03.436Z,38.09
2022-08-31T15:10:32.476Z,38.28
2022-08-31T15:13:05.565Z,38.07
2022-08-31T15:15:34.158Z,38.19
2022-08-31T15:18:04.698Z,38.25
2022-08-31T15:20:41.844Z,38.24
2022-08-31T15:23:09.701Z,38.59
2022-08-31T15:25:39.186Z,38.02
2022-08-31T15:28:08.558Z,38.12
2022-08-31T15:30:39.711Z,38.00
2022-08-31T15:33:08.346Z,38.16
2022-08-31T15:35:39.709Z,37.82
2022-08-31T15:38:09.058Z,37.81
2022-08-31T15:40:39.804Z,37.84
2022-08-31T15:43:15.773Z,37.86
2022-08-31T15:45:43.890Z,37.62
2022-08-31T15:48:30.309Z,37.79
2022-08-31T15:51:01.223Z,37.93
2022-08-31T15:53:30.519Z,38.31
2022-08-31T15:56:05.568Z,38.24
2022-08-31T15:58:34.706Z,37.88
2022-08-31T16:01:05.527Z,38.29
2022-08-31T16:03:35.674Z,38.48
2022-08-31T16:06:04.116Z,38.72
2022-08-31T16:08:31.725Z,38.46
2022-08-31T16:10:59.383Z,38.24
2022-08-31T16:13:27.025Z,38.18
2022-08-31T16:15:54.638Z,38.29
2022-08-31T16:18:22.755Z,38.28
2022-08-31T16:20:51.714Z,38.25
2022-08-31T16:23:21.021Z,38.39
2022-08-31T16:25:49.447Z,38.24
2022-08-31T16:28:20.060Z,38.27
2022-08-31T16:30:48.799Z,38.43
2022-08-31T16:33:20.666Z,38.61
2022-08-31T16:35:48.600Z,38.84
2022-08-31T16:38:16.985Z,38.59
2022-08-31T16:40:44.933Z,38.92
2022-08-31T16:43:12.620Z,38.84
2022-08-31T16:45:41.556Z,38.65
2022-08-31T16:48:29.482Z,38.80
2022-08-31T16:51:01.733Z,38.98
2022-08-31T16:53:30.641Z,38.94
2022-08-31T16:56:02.079Z,38.86
2022-08-31T17:01:24.077Z,38.91
2022-08-31T17:03:57.673Z,38.82
2022-08-31T17:06:28.074Z,38.98
2022-08-31T17:08:59.138Z,38.93
2022-08-31T17:11:35.555Z,38.82
2022-08-31T17:14:06.879Z,39.11
2022-08-31T17:16:39.493Z,39.19
2022-08-31T17:19:11.620Z,39.00
2022-08-31T17:22:03.233Z,39.05
2022-08-31T17:24:49.574Z,39.44
2022-08-31T17:27:37.743Z,39.54
2022-08-31T17:30:25.684Z,39.50
2022-08-31T17:33:14.165Z,39.28
2022-08-31T17:36:02.175Z,39.23
2022-08-31T17:38:50.182Z,39.31
2022-08-31T17:41:18.020Z,39.43
2022-08-31T17:43:45.629Z,39.58
2022-08-31T17:46:14.515Z,39.38
2022-08-31T17:48:46.025Z,39.59
2022-08-31T17:51:28.942Z,39.36
2022-08-31T17:54:02.768Z,39.55
2022-08-31T17:56:42.273Z,39.72
2022-08-31T17:59:18.305Z,39.68
2022-08-31T18:01:48.330Z,39.70
2022-08-31T18:04:17.435Z,39.34
2022-08-31T18:06:45.294Z,39.53
2022-08-31T18:09:18.635Z,39.44
2022-08-31T18:11:46.407Z,39.68
2022-08-31T18:14:15.085Z,39.62
2022-08-31T18:16:43.628Z,39.53
2022-08-31T18:19:12.310Z,39.50
2022-08-31T18:21:40.172Z,39.72
2022-08-31T18:24:08.111Z,39.65
2022-08-31T18:26:44.259Z,39.74
2022-08-31T18:29:17.041Z,39.63
2022-08-31T18:31:53.640Z,39.79
2022-08-31T18:34:23.835Z,39.57
2022-08-31T18:36:55.183Z,39.64
2022-08-31T18:39:47.843Z,39.70
2022-08-31T18:42:32.625Z,39.91
2022-08-31T18:45:15.558Z,39.62
2022-08-31T18:48:01.496Z,39.97
2022-08-31T18:50:36.870Z,39.77
2022-08-31T18:53:10.845Z,39.93
2022-08-31T18:55:44.019Z,39.72
2022-08-31T18:58:11.991Z,39.77
2022-08-31T19:00:41.116Z,39.43
2022-08-31T19:03:09.238Z,39.57
2022-08-31T19:05:40.586Z,39.66
2022-08-31T19:08:08.132Z,39.50
2022-08-31T19:10:35.700Z,39.45
2022-08-31T19:13:07.356Z,39.60
2022-08-31T19:15:39.727Z,39.16
2022-08-31T19:18:07.830Z,39.17
2022-08-31T19:20:35.779Z,39.28
2022-08-31T19:23:03.973Z,39.36
2022-08-31T19:25:32.035Z,39.29
2022-08-31T19:28:01.590Z,39.22
2022-08-31T19:30:30.322Z,39.19
2022-08-31T19:32:59.209Z,39.27
2022-08-31T19:35:27.928Z,39.15
2022-08-31T19:37:56.205Z,39.13
2022-08-31T19:40:42.972Z,39.36
2022-08-31T19:46:16.730Z,39.28
2022-08-31T19:48:45.312Z,39.12
2022-08-31T19:51:15.792Z,39.39
2022-08-31T19:53:45.133Z,39.45
2022-08-31T19:56:17.274Z,39.60
2022-08-31T19:58:49.335Z,39.41
2022-08-31T20:01:18.651Z,39.28
2022-08-31T20:03:47.769Z,39.75
2022-08-31T20:06:19.427Z,39.78
2022-08-31T20:08:49.209Z,39.56
2022-08-31T20:11:21.849Z,39.62
2022-08-31T20:13:50.496Z,39.28
2022-08-31T20:16:19.126Z,39.62
2022-08-31T20:18:48.493Z,39.61
2022-08-31T20:21:20.315Z,39.76
2022-08-31T20:23:50.057Z,39.59
2022-08-31T20:26:33.092Z,39.51
2022-08-31T20:29:08.915Z,39.41
2022-08-31T20:31:40.402Z,39.42
2022-08-31T20:34:09.265Z,40.12
2022-08-31T20:36:39.746Z,39.71
2022-08-31T20:39:16.303Z,39.82
2022-08-31T20:41:46.924Z,39.74
2022-08-31T20:44:30.953Z,39.83
2022-08-31T20:47:20.772Z,39.44
2022-08-31T20:49:58.341Z,39.53
2022-08-31T20:52:29.209Z,39.54
2022-08-31T20:55:01.978Z,39.29
2022-08-31T20:57:32.190Z,39.22
2022-08-31T21:00:03.768Z,39.46
2022-08-31T21:02:31.979Z,39.31
2022-08-31T21:05:15.163Z,39.54
2022-08-31T21:07:49.341Z,39.23
2022-08-31T21:10:20.853Z,39.37
2022-08-31T21:12:53.345Z,39.79
2022-08-31T21:15:30.107Z,39.57
2022-08-31T21:17:57.983Z,39.69
2022-08-31T21:20:26.424Z,39.64
2022-08-31T21:22:54.230Z,39.51
2022-08-31T21:25:22.430Z,39.63
2022-08-31T21:27:49.865Z,39.76
2022-08-31T21:30:18.714Z,39.81
2022-08-31T21:32:47.771Z,39.97
2022-08-31T21:35:15.430Z,39.96
2022-08-31T21:37:43.125Z,39.75
2022-08-31T21:40:11.359Z,39.80
2022-08-31T21:42:38.833Z,39.90
2022-08-31T21:45:07.334Z,40.14
2022-08-31T21:47:34.882Z,39.85
2022-08-31T21:50:03.112Z,40.00
2022-08-31T21:52:31.005Z,40.09
2022-08-31T21:54:58.613Z,40.14
2022-08-31T21:57:26.940Z,39.92
2022-08-31T21:59:54.568Z,39.89
2022-08-31T22:02:22.218Z,39.99
2022-08-31T22:04:49.893Z,40.06
2022-08-31T22:07:17.753Z,40.02
2022-08-31T22:09:46.790Z,39.84
2022-08-31T22:12:14.861Z,39.81
2022-08-31T22:14:44.637Z,39.73
2022-08-31T22:17:12.952Z,39.78
2022-08-31T22:19:42.947Z,40.00
2022-08-31T22:22:12.661Z,39.88
2022-08-31T22:24:41.230Z,40.00
2022-08-31T22:27:11.683Z,39.88
2022-08-31T22:29:40.429Z,39.91
2022-08-31T22:32:13.875Z,39.95
2022-08-31T22:34:43.054Z,39.55
2022-08-31T22:37:11.935Z,39.58
2022-08-31T22:39:42.295Z,39.59
2022-08-31T22:42:11.815Z,39.68
2022-08-31T22:44:40.467Z,39.70
2022-08-31T22:47:08.167Z,39.54
2022-08-31T22:49:35.903Z,39.70
2022-08-31T22:52:04.413Z,39.65
2022-08-31T22:54:32.172Z,39.70
2022-08-31T22:57:00.360Z,39.51
2022-08-31T22:59:28.163Z,39.54
2022-08-31T23:02:00.405Z,39.33
2022-08-31T23:04:29.787Z,39.62
2022-08-31T23:06:59.029Z,39.43
2022-08-31T23:09:30.428Z,39.72
2022-08-31T23:12:00.802Z,39.51
2022-08-31T23:14:29.564Z,39.37
2022-08-31T23:17:00.618Z,39.58
2022-08-31T23:19:33.271Z,39.79
2022-08-31T23:22:01.781Z,39.48
2022-08-31T23:24:49.708Z,39.30
2022-08-31T23:27:21.435Z,39.60
2022-08-31T23:29:52.446Z,39.51
2022-08-31T23:32:21.934Z,39.46
2022-08-31T23:34:50.859Z,39.63
2022-08-31T23:37:23.106Z,39.49
2022-08-31T23:39:54.732Z,39.53
2022-08-31T23:42:24.470Z,39.68
2022-08-31T23:44:52.757Z,39.44
2022-08-31T23:47:25.838Z,39.62
2022-08-31T23:49:53.809Z,39.49
2022-08-31T23:52:25.472Z,39.51
2022-08-31T23:55:00.970Z,39.46
2022-08-31T23:57:32.690Z,39.45
